Time;durP1;ratioP1;P1;durP2;ratioP2;P2;SDS_P1;SDS_P2;PMS_P1;PMS_P2;Temp;Humidity;BMP_temperature;BMP_pressure;BME280_temperature;BME280_humidity;BME280_pressure;Samples;Min_cycle;Max_cycle;Signal;HPM_P1;HPM_P2
2022/02/25 00:00:59;;;;;;;1.58;1.48;;;5.20;1.00;;;;;;5001874;28;20360;-87
2022/02/25 00:03:27;;;;;;;1.80;1.70;;;5.20;1.00;;;;;;5000854;28;20205;-87
2022/02/25 00:05:53;;;;;;;4.18;1.58;;;5.20;99.90;;;;;;5000982;28;20232;-86
2022/02/25 00:08:20;;;;;;;3.95;2.00;;;5.10;99.90;;;;;;5003867;28;20209;-88
2022/02/25 00:10:46;;;;;;;1.52;1.42;;;5.00;1.00;;;;;;5002055;28;20668;-87
2022/02/25 00:13:13;;;;;;;1.80;1.70;;;4.90;99.90;;;;;;5004937;28;20676;-86
2022/02/25 00:15:40;;;;;;;2.03;1.38;;;4.80;1.00;;;;;;5010697;28;20244;-85
2022/02/25 00:18:07;;;;;;;1.75;1.48;;;4.90;1.00;;;;;;5001288;28;20647;-87
2022/02/25 00:20:35;;;;;;;1.90;1.50;;;6.10;1.00;;;;;;5000845;28;20618;-87
2022/02/25 00:23:04;;;;;;;1.83;1.73;;;4.80;1.00;;;;;;5000759;28;20244;-87
2022/02/25 00:25:30;;;;;;;1.73;1.58;;;5.00;1.00;;;;;;5001073;28;20615;-87
2022/02/25 00:27:57;;;;;;;3.17;1.65;;;5.00;99.90;;;;;;5001877;28;20236;-87
2022/02/25 00:30:23;;;;;;;2.97;1.45;;;5.00;99.90;;;;;;5001462;28;20233;-87
2022/02/25 00:32:50;;;;;;;2.15;1.67;;;5.00;99.90;;;;;;5013957;28;20193;-86
2022/02/25 00:35:17;;;;;;;2.70;1.60;;;;;;;;;;5004096;28;20579;-87
2022/02/25 00:37:45;;;;;;;3.15;1.73;;;5.10;99.90;;;;;;5001831;28;20550;-87
2022/02/25 00:40:13;;;;;;;1.63;1.50;;;5.00;99.90;;;;;;5008806;28;20205;-87
2022/02/25 00:42:39;;;;;;;2.35;1.60;;;5.00;99.90;;;;;;5001512;28;20224;-86
2022/02/25 00:45:08;;;;;;;2.28;1.75;;;4.80;99.90;;;;;;5001040;28;20612;-87
2022/02/25 00:47:35;;;;;;;1.23;1.23;;;5.00;99.90;;;;;;5004151;28;20244;-87
2022/02/25 00:50:02;;;;;;;2.35;1.80;;;5.20;99.90;;;;;;5003768;28;20320;-87
2022/02/25 00:52:29;;;;;;;1.83;1.20;;;4.70;99.90;;;;;;5000273;28;20287;-87
2022/02/25 00:54:57;;;;;;;3.25;1.90;;;5.00;99.90;;;;;;5000154;28;20209;-87
2022/02/25 00:57:24;;;;;;;2.95;1.50;;;5.00;99.90;;;;;;5000333;28;20221;-87
2022/02/25 00:59:51;;;;;;;2.72;1.60;;;5.00;99.90;;;;;;5000572;28;20643;-88
2022/02/25 01:02:17;;;;;;;1.55;1.30;;;5.00;99.90;;;;;;5001073;28;20224;-87
2022/02/25 01:04:46;;;;;;;1.77;1.67;;;4.90;99.90;;;;;;5000755;28;20224;-87
2022/02/25 01:07:13;;;;;;;2.67;1.83;;;4.90;99.90;;;;;;5001561;28;20225;-88
2022/02/25 01:09:39;;;;;;;1.95;1.75;;;4.80;99.90;;;;;;5009508;28;20213;-87
2022/02/25 01:12:10;;;;;;;2.42;1.83;;;4.80;99.90;;;;;;5001203;28;20212;-87
2022/02/25 01:14:37;;;;;;;2.60;1.70;;;;;;;;;;5000536;28;20240;-87
2022/02/25 01:17:04;;;;;;;1.95;1.50;;;4.70;1.00;;;;;;5000335;28;20336;-88
2022/02/25 01:19:30;;;;;;;2.42;1.55;;;4.80;99.90;;;;;;5000187;28;20205;-87
2022/02/25 01:21:57;;;;;;;3.08;1.75;;;4.70;1.00;;;;;;4999145;28;20205;-87
2022/02/25 01:24:23;;;;;;;1.83;1.73;;;4.70;99.90;;;;;;5009238;28;20213;-87
2022/02/25 01:26:50;;;;;;;3.28;1.58;;;;;;;;;;5016742;28;20221;-88
2022/02/25 01:29:18;;;;;;;3.17;1.95;;;4.60;74.40;;;;;;5012799;28;20197;-87
2022/02/25 01:31:46;;;;;;;4.47;1.85;;;4.50;1.00;;;;;;5003502;28;20273;-87
2022/02/25 01:34:13;;;;;;;2.53;1.50;;;;;;;;;;5007809;28;20201;-88
2022/02/25 01:36:40;;;;;;;1.90;1.50;;;4.50;1.00;;;;;;5010293;28;20236;-87
2022/02/25 01:39:06;;;;;;;3.25;2.00;;;4.50;99.90;;;;;;5018614;28;20188;-87
2022/02/25 01:41:33;;;;;;;4.13;1.70;;;4.50;1.00;;;;;;5011843;28;20205;-88
2022/02/25 01:44:17;;;;;;;3.28;2.40;;;4.50;1.00;;;;;;5009014;28;20669;-88
2022/02/25 01:46:48;;;;;;;4.60;3.47;;;4.50;39.10;;;;;;5004657;28;20228;-87
2022/02/25 01:49:14;;;;;;;6.82;2.17;;;4.60;1.00;;;;;;5006802;28;20193;-87
2022/02/25 01:51:41;;;;;;;2.95;2.65;;;4.50;22.00;;;;;;5010892;28;20277;-86
2022/02/25 01:54:08;;;;;;;2.97;2.20;;;4.60;1.00;;;;;;5015397;28;20213;-87
2022/02/25 01:56:37;;;;;;;3.90;2.25;;;4.50;14.50;;;;;;5015181;28;20288;-86
2022/02/25 01:59:03;;;;;;;2.75;2.00;;;4.70;99.90;;;;;;5016347;28;20204;-87
2022/02/25 02:01:31;;;;;;;2.40;2.20;;;4.70;99.90;;;;;;5018140;28;20205;-85
2022/02/25 02:03:59;;;;;;;2.13;1.90;;;4.50;99.90;;;;;;5018774;28;20180;-85
2022/02/25 02:06:26;;;;;;;2.50;1.80;;;4.60;1.00;;;;;;5018538;28;20248;-84
2022/02/25 02:08:52;;;;;;;3.95;2.05;;;4.50;99.90;;;;;;5007558;28;20197;-88
2022/02/25 02:11:30;;;;;;;3.40;2.40;;;4.50;1.00;;;;;;5000904;28;20204;-87
2022/02/25 02:13:57;;;;;;;5.90;2.40;;;4.60;99.90;;;;;;4999001;28;20200;-87
2022/02/25 02:16:24;;;;;;;6.55;2.20;;;4.60;99.90;;;;;;4998265;28;20256;-87
2022/02/25 02:18:51;;;;;;;2.85;1.98;;;4.60;99.90;;;;;;4998204;28;20296;-87
2022/02/25 02:21:21;;;;;;;2.95;2.75;;;4.60;1.00;;;;;;4998830;28;20244;-88
2022/02/25 02:23:49;;;;;;;3.67;2.20;;;4.30;1.00;;;;;;4998312;28;20209;-87
2022/02/25 02:26:15;;;;;;;2.58;2.10;;;4.60;99.90;;;;;;4999447;28;20229;-87
2022/02/25 02:28:42;;;;;;;5.05;2.17;;;4.60;1.00;;;;;;4997932;28;20232;-88
2022/02/25 02:31:08;;;;;;;2.00;1.80;;;4.70;1.00;;;;;;4999161;28;20216;-88
2022/02/25 02:33:36;;;;;;;2.10;2.00;;;4.60;1.00;;;;;;4998493;28;20205;-86
2022/02/25 02:36:03;;;;;;;2.60;2.22;;;4.60;1.00;;;;;;5011864;28;20251;-85
2022/02/25 02:38:31;;;;;;;5.25;2.45;;;4.60;1.00;;;;;;5018480;28;20177;-84
2022/02/25 02:40:59;;;;;;;2.03;1.73;;;4.60;99.90;;;;;;5018479;28;20177;-85
2022/02/25 02:43:26;;;;;;;6.18;1.90;;;4.50;99.90;;;;;;5017991;28;20193;-87
2022/02/25 02:45:53;;;;;;;3.60;1.88;;;4.40;1.00;;;;;;5010150;28;20233;-87
2022/02/25 02:48:20;;;;;;;2.05;1.95;;;4.40;99.90;;;;;;4999307;28;20209;-87
2022/02/25 02:50:47;;;;;;;2.22;1.95;;;4.60;99.90;;;;;;4997483;28;20209;-87
2022/02/25 02:53:14;;;;;;;2.47;1.92;;;4.40;99.90;;;;;;4997767;28;20284;-87
2022/02/25 02:55:41;;;;;;;4.30;2.20;;;4.40;1.00;;;;;;4997339;28;20205;-87
2022/02/25 02:58:10;;;;;;;3.63;2.13;;;4.40;1.00;;;;;;4997619;28;20263;-87
2022/02/25 03:00:38;;;;;;;5.32;2.10;;;6.00;99.90;;;;;;4998080;28;20259;-87
2022/02/25 03:03:04;;;;;;;4.85;2.47;;;4.30;99.90;;;;;;4998104;28;20205;-87
2022/02/25 03:05:31;;;;;;;5.22;2.60;;;4.10;1.00;;;;;;4997177;28;20279;-86
2022/02/25 03:07:57;;;;;;;5.57;2.25;;;4.20;99.90;;;;;;4997532;28;20209;-87
2022/02/25 03:10:24;;;;;;;2.30;2.10;;;4.20;1.00;;;;;;4998443;28;20197;-87
2022/02/25 03:12:51;;;;;;;4.28;2.45;;;4.20;1.00;;;;;;4998745;28;20506;-89
2022/02/25 03:15:19;;;;;;;3.25;2.10;;;4.10;99.90;;;;;;4997641;28;20236;-87
2022/02/25 03:17:47;;;;;;;2.10;2.00;;;4.20;1.00;;;;;;4997340;28;20268;-87
2022/02/25 03:20:15;;;;;;;4.95;2.35;;;4.10;99.90;;;;;;4998587;28;20216;-87
2022/02/25 03:22:42;;;;;;;3.85;2.22;;;4.10;99.90;;;;;;5001606;28;20215;-86
2022/02/25 03:25:09;;;;;;;3.92;2.30;;;4.20;99.90;;;;;;4998103;28;20263;-87
2022/02/25 03:27:36;;;;;;;6.10;3.15;;;4.30;99.90;;;;;;4997865;28;20338;-87
2022/02/25 03:30:04;;;;;;;5.38;2.90;;;4.20;99.90;;;;;;5009062;28;20201;-85
2022/02/25 03:32:32;;;;;;;4.72;2.30;;;4.20;1.00;;;;;;5017424;28;20205;-86
2022/02/25 03:34:58;;;;;;;3.85;2.30;;;3.60;99.90;;;;;;5015602;28;20196;-86
2022/02/25 03:37:27;;;;;;;3.90;2.53;;;4.10;1.00;;;;;;5011406;28;20229;-86
2022/02/25 03:39:54;;;;;;;4.50;2.33;;;4.00;30.70;;;;;;5001045;28;20205;-87
2022/02/25 03:42:20;;;;;;;5.95;2.45;;;3.90;99.90;;;;;;5005195;28;20279;-86
2022/02/25 03:44:47;;;;;;;8.73;2.45;;;3.90;1.00;;;;;;5003636;28;20209;-87
2022/02/25 03:47:14;;;;;;;3.65;3.13;;;3.80;1.00;;;;;;5002319;28;20249;-86
2022/02/25 03:49:42;;;;;;;4.20;3.03;;;3.80;1.00;;;;;;5002285;28;20205;-87
2022/02/25 03:52:08;;;;;;;10.52;2.90;;;3.80;99.90;;;;;;5006360;28;20208;-87
2022/02/25 03:54:35;;;;;;;5.85;2.20;;;3.80;99.90;;;;;;5008106;28;20233;-87
2022/02/25 03:57:03;;;;;;;3.08;2.45;;;3.80;54.20;;;;;;5008957;28;20256;-87
2022/02/25 03:59:29;;;;;;;4.72;2.70;;;3.80;1.00;;;;;;5009560;28;20205;-87
2022/02/25 04:01:56;;;;;;;2.88;2.67;;;3.80;1.00;;;;;;5020497;28;20235;-84
2022/02/25 04:04:25;;;;;;;4.95;2.95;;;3.70;99.90;;;;;;5021448;28;20185;-86
2022/02/25 04:06:53;;;;;;;4.07;3.22;;;3.80;99.90;;;;;;5018313;28;20233;-87
2022/02/25 04:09:22;;;;;;;8.60;3.33;;;3.70;12.60;;;;;;5003326;28;20227;-87
2022/02/25 04:11:50;;;;;;;2.60;2.03;;;3.60;61.90;;;;;;5002933;28;20235;-86
2022/02/25 04:14:19;;;;;;;4.72;2.97;;;3.70;40.30;;;;;;5002815;28;20606;-87
2022/02/25 04:16:54;;;;;;;6.07;3.13;;;3.60;99.90;;;;;;5019217;23;20292;-90
2022/02/25 04:19:33;;;;;;;4.35;2.90;;;3.70;99.90;;;;;;5017488;28;20209;-90
2022/02/25 04:22:05;;;;;;;3.83;2.63;;;3.70;99.90;;;;;;5010035;28;20181;-90
2022/02/25 04:24:33;;;;;;;5.20;2.55;;;;;;;;;;5007263;28;20248;-89
2022/02/25 04:27:04;;;;;;;4.40;2.80;;;3.70;99.90;;;;;;5008146;28;20233;-90
2022/02/25 04:29:36;;;;;;;6.43;2.20;;;3.60;99.90;;;;;;5008795;28;20222;-90
2022/02/25 04:32:21;;;;;;;2.67;2.25;;;6.10;99.90;;;;;;5017452;28;20208;-90
2022/02/25 04:34:50;;;;;;;5.10;2.65;;;;;;;;;;5017998;28;20212;-89
2022/02/25 04:37:18;;;;;;;10.90;3.20;;;3.60;99.90;;;;;;5004598;28;20244;-88
2022/02/25 04:39:45;;;;;;;5.97;3.10;;;;;;;;;;5005265;28;20660;-89
2022/02/25 04:42:12;;;;;;;7.65;3.22;;;3.50;99.90;;;;;;5004475;28;20232;-88
2022/02/25 04:44:39;;;;;;;4.20;3.30;;;3.30;99.90;;;;;;5012979;28;20205;-88
2022/02/25 04:47:07;;;;;;;5.15;3.20;;;3.60;99.90;;;;;;5016258;28;20255;-90
2022/02/25 04:49:35;;;;;;;6.47;3.20;;;;;;;;;;5015835;28;20253;-89
2022/02/25 04:52:06;;;;;;;5.75;3.90;;;3.60;99.90;;;;;;5007462;28;20283;-88
2022/02/25 04:54:37;;;;;;;7.88;2.85;;;3.70;99.90;;;;;;5010222;28;20229;-89
2022/02/25 05:00:06;;;;;;;6.32;3.15;;;3.80;99.90;;;;;;5010001;28;20216;-90
2022/02/25 05:09:30;;;;;;;6.25;2.80;;;3.70;99.90;;;;;;4899569;29;20205;-91
2022/02/25 05:12:09;;;;;;;3.60;2.75;;;3.70;99.90;;;;;;4944489;29;20203;-90
2022/02/25 05:23:14;;;;;;;10.55;3.38;;;3.50;99.90;;;;;;5004810;28;20189;-90
2022/02/25 05:28:39;;;;;;;2.90;2.55;;;3.50;99.90;;;;;;5009754;28;20602;-90
2022/02/25 05:31:09;;;;;;;4.97;3.13;;;2.90;99.90;;;;;;5010198;28;20181;-90
2022/02/25 05:33:42;;;;;;;8.32;3.45;;;3.50;99.90;;;;;;5012448;28;20224;-91
2022/02/25 05:36:10;;;;;;;5.10;3.72;;;;;;;;;;5018562;28;22112;-90
2022/02/25 05:38:49;;;;;;;10.90;3.30;;;3.60;99.90;;;;;;5012876;28;20524;-90
2022/02/25 05:41:24;;;;;;;3.30;3.00;;;3.60;99.90;;;;;;5016636;28;20225;-90
2022/02/25 05:43:59;;;;;;;3.95;3.65;;;3.60;99.90;;;;;;5018748;28;20176;-90
2022/02/25 05:46:30;;;;;;;6.20;4.05;;;3.40;99.90;;;;;;5019106;28;20236;-89
2022/02/25 05:49:00;;;;;;;12.27;3.92;;;;;;;;;;5018963;28;20191;-90
2022/02/25 05:51:46;;;;;;;4.50;3.03;;;2.80;99.90;;;;;;5018769;28;20268;-89
2022/02/25 05:54:14;;;;;;;4.93;3.40;;;;;;;;;;5017591;28;20211;-90
2022/02/25 05:56:54;;;;;;;3.80;3.33;;;5.80;99.90;;;;;;5018620;28;20220;-90
2022/02/25 05:59:29;;;;;;;5.28;3.90;;;2.80;99.90;;;;;;5016655;28;20221;-91
2022/02/25 06:02:04;;;;;;;4.07;3.22;;;3.10;99.90;;;;;;5017405;28;20283;-90
2022/02/25 06:04:33;;;;;;;8.27;3.25;;;3.00;99.90;;;;;;5011186;28;20235;-90
2022/02/25 06:07:03;;;;;;;6.78;3.28;;;;;;;;;;5008887;28;20225;-90
2022/02/25 06:09:30;;;;;;;6.00;3.22;;;;;;;;;;5012323;28;20209;-90
2022/02/25 06:11:57;;;;;;;5.03;2.85;;;;;;;;;;5005716;28;20205;-90
2022/02/25 06:14:27;;;;;;;6.30;3.00;;;3.00;99.90;;;;;;5007353;28;20299;-90
2022/02/25 06:16:59;;;;;;;5.95;3.10;;;3.00;99.90;;;;;;5007641;28;20224;-90
2022/02/25 06:19:28;;;;;;;6.40;3.67;;;2.80;99.90;;;;;;5010553;28;20201;-90
2022/02/25 06:21:55;;;;;;;8.57;3.95;;;3.00;99.90;;;;;;5018165;28;20197;-90
2022/02/25 06:24:25;;;;;;;7.05;3.55;;;2.80;99.90;;;;;;5017337;28;20347;-90
2022/02/25 06:26:55;;;;;;;4.07;3.40;;;3.10;99.90;;;;;;5018312;28;20228;-88
2022/02/25 06:29:22;;;;;;;4.30;3.80;;;2.70;99.90;;;;;;5017638;28;20255;-91
2022/02/25 06:31:51;;;;;;;6.70;3.58;;;2.50;99.90;;;;;;5015024;28;20228;-90
2022/02/25 06:34:21;;;;;;;5.03;3.45;;;2.90;99.90;;;;;;5008121;28;20268;-90
2022/02/25 06:36:53;;;;;;;4.85;4.13;;;3.10;99.90;;;;;;5006786;28;20229;-89
2022/02/25 06:39:25;;;;;;;8.88;3.50;;;2.90;99.90;;;;;;5012443;28;20205;-90
2022/02/25 06:42:14;;;;;;;9.65;5.97;;;3.40;99.90;;;;;;5010704;28;20219;-91
2022/02/25 06:44:55;;;;;;;5.85;3.22;;;3.20;99.90;;;;;;5009888;28;20237;-92
2022/02/25 06:47:43;;;;;;;6.70;2.97;;;3.30;99.90;;;;;;5013868;28;20223;-91
2022/02/25 06:50:11;;;;;;;3.63;3.30;;;3.60;99.90;;;;;;5018298;28;20208;-89
2022/02/25 06:52:42;;;;;;;10.82;3.90;;;3.50;99.90;;;;;;5018113;28;20296;-91
2022/02/25 06:55:09;;;;;;;9.82;3.60;;;;;;;;;;5018036;28;20189;-89
2022/02/25 06:57:39;;;;;;;5.68;3.95;;;3.60;99.90;;;;;;5017746;28;20228;-91
2022/02/25 07:00:07;;;;;;;6.78;3.92;;;3.60;99.90;;;;;;5016544;28;20196;-91
2022/02/25 07:02:36;;;;;;;6.88;3.60;;;3.80;99.90;;;;;;5014732;28;20200;-90
2022/02/25 07:05:08;;;;;;;4.10;3.30;;;3.80;1.00;;;;;;5018106;28;20190;-90
2022/02/25 07:07:35;;;;;;;4.07;3.70;;;4.00;1.00;;;;;;5017994;28;20221;-90
2022/02/25 07:10:03;;;;;;;3.88;3.50;;;;;;;;;;5018196;28;20227;-89
2022/02/25 07:12:33;;;;;;;6.63;3.70;;;3.80;1.00;;;;;;5010632;28;20197;-91
2022/02/25 07:15:03;;;;;;;6.03;3.08;;;;;;;;;;5013299;28;20207;-92
2022/02/25 07:17:34;;;;;;;10.63;4.10;;;4.30;1.00;;;;;;5015204;28;20224;-91
2022/02/25 07:20:13;;;;;;;8.20;3.15;;;4.00;99.90;;;;;;5014116;28;20201;-91
2022/02/25 07:22:43;;;;;;;4.43;3.17;;;4.10;99.90;;;;;;5010615;28;20205;-91
2022/02/25 07:25:14;;;;;;;7.10;3.85;;;;;;;;;;5017849;28;20303;-90
2022/02/25 07:27:41;;;;;;;13.38;6.88;;;4.20;48.50;;;;;;5021334;28;20284;-90
2022/02/25 07:30:16;;;;;;;10.60;5.28;;;4.10;99.90;;;;;;5021688;28;20192;-91
2022/02/25 07:32:55;;;;;;;12.98;7.25;;;4.20;99.90;;;;;;5021011;28;20192;-90
2022/02/25 07:36:01;;;;;;;12.65;6.00;;;4.00;99.90;;;;;;5019637;28;20192;-91
2022/02/25 07:38:35;;;;;;;12.88;7.25;;;4.60;99.90;;;;;;5018970;28;20204;-90
2022/02/25 07:41:14;;;;;;;8.23;4.57;;;;;;;;;;5015121;28;20201;-91
2022/02/25 07:43:53;;;;;;;9.60;6.35;;;4.30;99.90;;;;;;5019867;28;20212;-92
2022/02/25 07:46:24;;;;;;;5.70;4.60;;;;;;;;;;5015258;28;20232;-90
2022/02/25 07:49:07;;;;;;;9.20;4.70;;;4.00;99.90;;;;;;5014289;28;20201;-92
2022/02/25 07:52:07;;;;;;;8.73;3.90;;;4.30;99.90;;;;;;5013522;28;20216;-92
2022/02/25 07:55:08;;;;;;;8.95;5.97;;;4.50;99.90;;;;;;5013710;28;20216;-91
2022/02/25 07:57:45;;;;;;;10.00;5.60;;;4.70;99.90;;;;;;5012238;28;20289;-90
2022/02/25 08:00:17;;;;;;;17.70;10.85;;;4.90;99.90;;;;;;5010893;28;20264;-91
2022/02/25 08:02:56;;;;;;;12.63;9.25;;;4.30;99.90;;;;;;5011028;28;20208;-92
2022/02/25 08:05:26;;;;;;;9.95;5.05;;;4.60;99.90;;;;;;5009473;28;20205;-91
2022/02/25 08:11:12;;;;;;;7.15;4.28;;;4.60;99.90;;;;;;5010267;28;20243;-91
2022/02/25 08:13:42;;;;;;;5.45;4.63;;;4.60;99.90;;;;;;5009114;28;20185;-91
2022/02/25 08:16:12;;;;;;;3.70;3.40;;;4.60;99.90;;;;;;5009366;28;20232;-90
2022/02/25 08:18:39;;;;;;;4.45;2.83;;;4.50;99.90;;;;;;5010347;28;20216;-92
2022/02/25 08:21:06;;;;;;;4.30;3.42;;;;;;;;;;5012990;28;20235;-92
2022/02/25 08:23:44;;;;;;;6.25;3.38;;;4.50;99.90;;;;;;5011189;28;20205;-92
2022/02/25 08:26:25;;;;;;;11.48;3.35;;;;;;;;;;5013981;28;20243;-90
2022/02/25 08:28:53;;;;;;;5.30;3.30;;;;;;;;;;5021612;28;20192;-89
2022/02/25 08:31:22;;;;;;;4.28;3.08;;;;;;;;;;5021291;28;20179;-91
2022/02/25 08:33:59;;;;;;;4.43;2.63;;;4.80;99.90;;;;;;5019202;28;20196;-91
2022/02/25 08:36:30;;;;;;;6.63;3.35;;;;;;;;;;5017530;28;20248;-92
2022/02/25 08:39:01;;;;;;;7.28;4.05;;;5.10;99.90;;;;;;5010570;28;20197;-92
2022/02/25 08:41:36;;;;;;;4.05;3.10;;;5.00;99.90;;;;;;5013031;28;20212;-91
2022/02/25 08:44:12;;;;;;;5.72;3.40;;;5.20;99.90;;;;;;5009637;28;20231;-92
2022/02/25 08:46:45;;;;;;;4.90;2.95;;;5.30;99.90;;;;;;5009729;28;20229;-92
2022/02/25 08:49:12;;;;;;;4.75;2.42;;;;;;;;;;5009800;28;20197;-90
2022/02/25 08:52:34;;;;;;;9.32;3.20;;;5.20;99.90;;;;;;5020309;28;20212;-89
2022/02/25 08:55:09;;;;;;;4.40;3.08;;;5.30;99.90;;;;;;5020034;28;20189;-90
2022/02/25 08:57:39;;;;;;;3.10;2.80;;;5.30;99.90;;;;;;5020625;28;20225;-91
2022/02/25 09:00:11;;;;;;;6.00;2.95;;;5.30;99.90;;;;;;5014122;28;20623;-91
2022/02/25 09:02:55;;;;;;;3.17;2.78;;;5.20;99.90;;;;;;5012580;28;20201;-91
2022/02/25 09:05:35;;;;;;;8.27;3.55;;;5.50;99.90;;;;;;5012579;28;20217;-91
2022/02/25 09:08:20;;;;;;;4.78;2.67;;;5.60;99.90;;;;;;5008159;28;20232;-91
2022/02/25 09:10:52;;;;;;;6.45;3.00;;;5.60;99.90;;;;;;5011460;28;20228;-91
2022/02/25 09:13:20;;;;;;;9.13;2.70;;;;;;;;;;5019416;28;20204;-90
2022/02/25 09:15:47;;;;;;;3.95;2.40;;;5.20;99.90;;;;;;5020890;28;20189;-90
2022/02/25 09:18:15;;;;;;;6.22;2.75;;;;;;;;;;5020503;28;20276;-89
2022/02/25 09:20:54;;;;;;;4.43;2.10;;;5.60;99.90;;;;;;5020464;28;20181;-90
2022/02/25 09:23:37;;;;;;;10.70;3.00;;;5.70;99.90;;;;;;5016122;28;20205;-91
2022/02/25 09:26:11;;;;;;;3.05;2.53;;;5.80;99.90;;;;;;5011214;28;20220;-90
2022/02/25 09:28:57;;;;;;;3.85;2.30;;;5.90;99.90;;;;;;5017387;28;20213;-91
2022/02/25 09:34:26;;;;;;;4.00;2.28;;;;;;;;;;4986172;28;20233;-90
2022/02/25 09:36:58;;;;;;;6.70;3.03;;;5.60;99.90;;;;;;5003284;28;20256;-92
2022/02/25 09:39:31;;;;;;;6.18;2.40;;;5.90;99.90;;;;;;5016069;28;20192;-91
2022/02/25 09:48:41;;;;;;;2.85;2.30;;;6.00;99.90;;;;;;5033112;23;20245;-91
2022/02/25 10:04:30;;;;;;;3.15;2.40;;;6.40;99.90;;;;;;5295477;23;20263;-91
2022/02/25 10:21:07;;;;;;;4.60;2.05;;;6.70;99.90;;;;;;5052576;28;20378;-88
2022/02/25 10:23:36;;;;;;;5.53;2.60;;;6.60;99.90;;;;;;5051485;28;20187;-87
2022/02/25 10:26:15;;;;;;;6.45;2.58;;;7.00;99.90;;;;;;5051624;28;20709;-88
2022/02/25 10:28:45;;;;;;;3.30;2.28;;;6.90;99.90;;;;;;5052150;28;20227;-88
2022/02/25 10:31:20;;;;;;;3.33;1.80;;;6.40;99.90;;;;;;5051976;28;20198;-87
2022/02/25 10:34:03;;;;;;;6.50;3.15;;;6.90;99.90;;;;;;5053305;28;20222;-88
2022/02/25 10:36:44;;;;;;;4.18;2.35;;;6.90;99.90;;;;;;5053505;28;20323;-88
2022/02/25 10:39:13;;;;;;;10.15;2.10;;;8.30;99.90;;;;;;5055426;28;20224;-87
2022/02/25 10:41:40;;;;;;;7.53;2.58;;;;;;;;;;5049090;28;20204;-88
2022/02/25 10:44:07;;;;;;;7.35;2.92;;;;;;;;;;5053694;28;20223;-87
2022/02/25 10:46:35;;;;;;;4.40;2.78;;;6.60;99.90;;;;;;5058152;28;20198;-86
2022/02/25 10:49:06;;;;;;;6.10;3.00;;;7.10;99.90;;;;;;5057175;28;20279;-86
2022/02/25 10:51:37;;;;;;;4.20;2.97;;;7.10;99.90;;;;;;5058076;28;20192;-85
2022/02/25 10:54:04;;;;;;;6.10;2.22;;;7.10;99.90;;;;;;5057754;28;20211;-85
2022/02/25 10:56:43;;;;;;;7.50;2.47;;;7.10;99.90;;;;;;5057051;28;20192;-87
2022/02/25 10:59:12;;;;;;;6.03;2.38;;;7.10;99.90;;;;;;5056875;28;20242;-85
2022/02/25 11:01:39;;;;;;;3.58;2.60;;;6.60;99.90;;;;;;5057616;28;20196;-87
2022/02/25 11:04:08;;;;;;;4.35;2.42;;;6.60;99.90;;;;;;5058023;28;20172;-84
2022/02/25 11:06:42;;;;;;;5.70;2.72;;;6.90;99.90;;;;;;5057792;28;20171;-85
2022/02/25 11:09:09;;;;;;;6.55;2.50;;;;;;;;;;5057750;28;20216;-87
2022/02/25 11:11:49;;;;;;;5.38;2.30;;;6.70;99.90;;;;;;5057869;28;20218;-85
2022/02/25 11:14:16;;;;;;;10.35;2.78;;;;;;;;;;5057269;28;20214;-87
2022/02/25 11:16:47;;;;;;;6.35;2.63;;;6.80;99.90;;;;;;5057579;28;20198;-86
2022/02/25 11:19:14;;;;;;;5.50;2.15;;;6.60;99.90;;;;;;5057578;28;20249;-88
2022/02/25 11:21:42;;;;;;;4.70;2.92;;;6.80;99.90;;;;;;5057592;28;20184;-86
2022/02/25 11:24:09;;;;;;;11.93;3.78;;;6.80;99.90;;;;;;5056765;28;20210;-87
2022/02/25 11:26:38;;;;;;;3.85;2.88;;;6.80;99.90;;;;;;5056191;28;20204;-87
2022/02/25 11:29:07;;;;;;;8.75;3.33;;;6.20;99.90;;;;;;5052312;28;20223;-89
2022/02/25 11:31:36;;;;;;;7.32;2.50;;;7.40;99.90;;;;;;5047689;28;20204;-87
2022/02/25 11:34:05;;;;;;;4.53;2.33;;;7.20;99.90;;;;;;5044322;28;20204;-87
2022/02/25 11:36:46;;;;;;;6.85;3.10;;;7.30;99.90;;;;;;5041276;28;20199;-88
2022/02/25 11:39:20;;;;;;;5.55;4.47;;;7.50;99.90;;;;;;5042995;28;20250;-87
2022/02/25 11:41:52;;;;;;;3.47;2.65;;;7.20;99.90;;;;;;5045315;28;20207;-88
2022/02/25 11:44:19;;;;;;;11.05;2.85;;;7.10;99.90;;;;;;5048552;28;20200;-87
2022/02/25 11:46:46;;;;;;;5.93;2.83;;;7.10;99.90;;;;;;5048217;28;20204;-87
2022/02/25 11:49:20;;;;;;;4.05;3.20;;;6.90;99.90;;;;;;5043548;28;20277;-87
2022/02/25 11:52:08;;;;;;;4.00;2.90;;;7.00;99.90;;;;;;5042088;28;20267;-87
2022/02/25 11:54:41;;;;;;;5.15;3.33;;;6.90;99.90;;;;;;5043655;28;20219;-87
2022/02/25 11:57:31;;;;;;;7.47;3.55;;;6.80;99.90;;;;;;5042502;28;20199;-87
2022/02/25 12:00:21;;;;;;;5.38;3.00;;;6.80;99.90;;;;;;5043269;28;20231;-86
2022/02/25 12:03:21;;;;;;;10.02;3.92;;;6.80;99.90;;;;;;5046244;28;20183;-87
2022/02/25 12:05:48;;;;;;;6.60;3.72;;;6.80;99.90;;;;;;5030058;28;20189;-86
2022/02/25 12:08:24;;;;;;;6.78;3.50;;;6.70;99.90;;;;;;5032455;28;20328;-88
2022/02/25 12:10:51;;;;;;;3.22;2.92;;;6.60;99.90;;;;;;5039951;28;20552;-86
2022/02/25 12:13:24;;;;;;;4.00;2.75;;;6.60;99.90;;;;;;5046321;28;20200;-87
2022/02/25 12:15:51;;;;;;;5.00;3.75;;;6.60;99.90;;;;;;5045830;28;20203;-87
2022/02/25 12:18:19;;;;;;;3.92;3.38;;;7.00;99.90;;;;;;5046059;28;20199;-87
2022/02/25 12:20:49;;;;;;;7.18;4.57;;;6.70;99.90;;;;;;5045168;28;20290;-87
2022/02/25 12:23:19;;;;;;;4.50;3.53;;;6.70;99.90;;;;;;5055247;28;20294;-86
2022/02/25 12:25:49;;;;;;;6.05;3.13;;;6.70;99.90;;;;;;5060394;28;20187;-84
2022/02/25 12:28:43;;;;;;;7.00;3.30;;;6.70;99.90;;;;;;5059778;28;20236;-84
2022/02/25 12:31:12;;;;;;;3.40;2.80;;;6.70;99.90;;;;;;5060082;28;20188;-86
2022/02/25 12:33:52;;;;;;;6.53;3.42;;;6.70;99.90;;;;;;5054566;28;20250;-86
2022/02/25 12:36:54;;;;;;;4.68;3.90;;;6.70;99.90;;;;;;5057989;28;20265;-86
2022/02/25 12:39:31;;;;;;;14.95;3.70;;;6.60;99.90;;;;;;5058642;28;20222;-87
2022/02/25 12:42:01;;;;;;;6.45;3.40;;;6.60;99.90;;;;;;5059974;28;20188;-86
2022/02/25 12:44:30;;;;;;;5.97;3.95;;;6.60;99.90;;;;;;5048670;28;20235;-87
2022/02/25 12:47:09;;;;;;;4.45;3.85;;;6.60;99.90;;;;;;5048289;28;20287;-87
2022/02/25 12:49:37;;;;;;;9.55;5.05;;;6.60;99.90;;;;;;5046542;28;20238;-87
2022/02/25 12:52:07;;;;;;;10.07;5.10;;;6.60;99.90;;;;;;5046064;28;20214;-88
2022/02/25 12:54:36;;;;;;;11.90;5.00;;;6.60;99.90;;;;;;5047145;28;20218;-87
2022/02/25 12:57:08;;;;;;;12.18;4.30;;;6.60;99.90;;;;;;5045626;28;20215;-87
2022/02/25 12:59:38;;;;;;;5.70;4.40;;;6.50;99.90;;;;;;5042902;28;20658;-87
2022/02/25 13:02:07;;;;;;;4.30;3.30;;;6.60;99.90;;;;;;5042953;28;20614;-87
2022/02/25 13:04:40;;;;;;;7.80;3.50;;;6.60;99.90;;;;;;5044655;28;20204;-87
2022/02/25 13:07:07;;;;;;;7.95;4.05;;;6.40;99.90;;;;;;5045653;28;20184;-86
2022/02/25 13:09:36;;;;;;;6.50;3.47;;;6.50;99.90;;;;;;5058988;28;20262;-84
2022/02/25 13:12:06;;;;;;;5.72;3.20;;;6.80;99.90;;;;;;5059061;28;20240;-84
2022/02/25 13:14:36;;;;;;;6.70;4.25;;;6.60;99.90;;;;;;5059366;28;20179;-87
2022/02/25 13:17:10;;;;;;;5.75;3.17;;;6.60;99.90;;;;;;5053136;28;20211;-87
2022/02/25 13:19:39;;;;;;;5.05;2.65;;;6.60;99.90;;;;;;5056286;28;20246;-86
2022/02/25 13:22:12;;;;;;;3.10;2.20;;;6.70;99.90;;;;;;5058852;28;20218;-87
2022/02/25 13:24:51;;;;;;;3.78;2.30;;;6.70;99.90;;;;;;5045579;28;20547;-89
2022/02/25 13:27:26;;;;;;;3.13;2.58;;;6.60;99.90;;;;;;5040646;28;20188;-88
2022/02/25 13:29:53;;;;;;;2.60;2.40;;;6.60;99.90;;;;;;5041612;28;20258;-86
2022/02/25 13:32:26;;;;;;;9.25;2.72;;;6.50;99.90;;;;;;5041549;28;20208;-88
2022/02/25 13:34:53;;;;;;;4.60;2.80;;;;;;;;;;5044057;28;20192;-88
2022/02/25 13:37:19;;;;;;;7.97;2.83;;;6.40;99.90;;;;;;5042600;28;20199;-87
2022/02/25 13:39:46;;;;;;;3.45;2.42;;;6.50;99.90;;;;;;5041740;28;20231;-87
2022/02/25 13:42:15;;;;;;;5.47;2.15;;;6.50;99.90;;;;;;5043154;28;20245;-88
2022/02/25 13:44:44;;;;;;;9.57;3.38;;;6.50;99.90;;;;;;5043978;28;20211;-88
2022/02/25 13:52:58;;;;;;;3.80;2.40;;;6.70;99.90;;;;;;5049380;28;20309;-87
2022/02/25 13:55:25;;;;;;;6.47;2.20;;;6.60;99.90;;;;;;5048908;28;20218;-88
2022/02/25 13:57:57;;;;;;;4.35;2.13;;;6.80;99.90;;;;;;5052749;28;20203;-87
2022/02/25 14:00:28;;;;;;;6.95;3.10;;;6.10;99.90;;;;;;5046570;28;20309;-87
2022/02/25 14:02:55;;;;;;;3.20;2.58;;;;;;;;;;5053581;28;20246;-88
2022/02/25 14:05:24;;;;;;;5.65;2.63;;;5.70;99.90;;;;;;5048646;28;20234;-88
2022/02/25 14:07:53;;;;;;;6.40;2.35;;;5.50;1.00;;;;;;5044015;28;20294;-88
2022/02/25 14:10:24;;;;;;;6.60;2.50;;;5.30;1.00;;;;;;5045090;28;20238;-87
2022/02/25 14:12:52;;;;;;;4.40;1.75;;;5.30;99.90;;;;;;5044458;28;20204;-88
2022/02/25 14:15:22;;;;;;;4.07;2.50;;;5.10;1.00;;;;;;5049212;28;20211;-87
2022/02/25 14:17:52;;;;;;;4.40;2.92;;;5.10;99.90;;;;;;5050021;28;20200;-88
2022/02/25 14:20:21;;;;;;;2.90;2.65;;;5.10;1.00;;;;;;5052850;28;20219;-86
2022/02/25 14:22:50;;;;;;;3.00;2.75;;;5.20;99.90;;;;;;5051020;28;20231;-86
2022/02/25 14:25:23;;;;;;;2.90;2.50;;;5.50;14.20;;;;;;5048049;28;20266;-87
2022/02/25 14:28:04;;;;;;;9.30;3.58;;;5.40;99.90;;;;;;5047957;28;20187;-88
2022/02/25 14:30:33;;;;;;;3.13;2.80;;;5.40;1.00;;;;;;5047817;28;20234;-88
2022/02/25 14:33:11;;;;;;;4.65;3.15;;;5.40;1.00;;;;;;5046447;28;20231;-88
2022/02/25 14:35:39;;;;;;;4.93;2.60;;;5.50;1.00;;;;;;5045987;28;20188;-87